Time;durP1;ratioP1;P1;durP2;ratioP2;P2;SDS_P1;SDS_P2;PMS_P1;PMS_P2;Temp;Humidity;BMP_temperature;BMP_pressure;BME280_temperature;BME280_humidity;BME280_pressure;Samples;Min_cycle;Max_cycle;Signal;HPM_P1;HPM_P2
2024/04/17 00:00:15;;;;;;;0.90;0.70;;;23.00;44.50;;;;;;11211972;26;20010;-42
2024/04/17 00:05:18;;;;;;;1.55;0.70;;;23.10;44.30;;;;;;11211954;26;20011;-41
2024/04/17 00:10:22;;;;;;;1.00;0.70;;;22.90;44.70;;;;;;11211825;26;20014;-42
2024/04/17 00:15:28;;;;;;;2.95;0.80;;;23.10;44.10;;;;;;11211639;26;20050;-42
2024/04/17 00:20:31;;;;;;;1.02;0.73;;;22.70;44.50;;;;;;11211425;26;20038;-42
2024/04/17 00:25:34;;;;;;;0.95;0.65;;;22.80;44.50;;;;;;11211572;26;20479;-42
2024/04/17 00:30:40;;;;;;;3.08;0.70;;;22.70;44.80;;;;;;11211155;26;20015;-43
2024/04/17 00:35:44;;;;;;;0.80;0.50;;;22.70;44.70;;;;;;11211050;26;20407;-44
2024/04/17 00:40:47;;;;;;;2.08;0.80;;;22.70;44.80;;;;;;11211029;26;19999;-42
2024/04/17 00:45:53;;;;;;;0.93;0.68;;;22.70;44.60;;;;;;11211440;26;20011;-44
2024/04/17 00:50:57;;;;;;;0.70;0.60;;;22.20;45.20;;;;;;11210632;26;20347;-42
2024/04/17 00:56:01;;;;;;;1.65;0.63;;;22.20;45.60;;;;;;11210378;26;20006;-42
2024/04/17 01:01:07;;;;;;;1.10;0.70;;;;;;;;;;11209019;26;19999;-42
2024/04/17 01:06:11;;;;;;;1.17;0.80;;;22.00;45.10;;;;;;11209777;26;20015;-42
2024/04/17 01:11:14;;;;;;;0.70;0.60;;;22.10;45.70;;;;;;11209970;26;20356;-42
2024/04/17 01:16:20;;;;;;;0.90;0.60;;;22.00;45.50;;;;;;11209865;26;19999;-42
2024/04/17 01:21:23;;;;;;;0.70;0.60;;;22.10;45.50;;;;;;11209607;26;19996;-46
2024/04/17 01:26:29;;;;;;;0.73;0.63;;;22.30;45.20;;;;;;11209551;26;20460;-42
2024/04/17 01:31:32;;;;;;;1.23;0.80;;;22.00;45.60;;;;;;11209725;26;20000;-42
2024/04/17 01:36:36;;;;;;;1.00;0.70;;;22.10;45.50;;;;;;11209277;26;20010;-42
2024/04/17 01:41:41;;;;;;;1.23;0.77;;;22.10;45.30;;;;;;11209319;26;20000;-42
2024/04/17 01:46:45;;;;;;;0.60;0.60;;;22.10;45.20;;;;;;11209024;26;20000;-42
2024/04/17 01:51:48;;;;;;;1.33;0.60;;;22.20;44.80;;;;;;11208855;26;20334;-43
2024/04/17 01:56:54;;;;;;;0.80;0.60;;;22.00;45.20;;;;;;11208318;26;20007;-42
2024/04/17 02:01:57;;;;;;;1.42;0.68;;;22.00;45.30;;;;;;11208372;26;20009;-42
2024/04/17 02:07:00;;;;;;;1.00;0.80;;;21.90;45.20;;;;;;11208383;26;19999;-44
2024/04/17 02:12:07;;;;;;;0.90;0.50;;;21.80;45.40;;;;;;11208137;26;20361;-42
2024/04/17 02:17:10;;;;;;;0.57;0.50;;;21.80;45.40;;;;;;11208045;26;19999;-42
2024/04/17 02:22:19;;;;;;;0.65;0.60;;;21.80;45.40;;;;;;11207602;26;20399;-42
2024/04/17 02:27:25;;;;;;;1.25;0.80;;;;;;;;;;11207132;26;20034;-46
2024/04/17 02:32:30;;;;;;;0.50;0.50;;;21.70;44.80;;;;;;11207138;26;20014;-46
2024/04/17 02:37:33;;;;;;;0.85;0.55;;;21.80;45.30;;;;;;11207120;26;20012;-42
2024/04/17 02:42:39;;;;;;;0.73;0.60;;;21.60;45.50;;;;;;11207272;26;20423;-44
2024/04/17 02:47:43;;;;;;;1.20;0.70;;;21.70;45.30;;;;;;11206796;26;20008;-44
2024/04/17 02:52:46;;;;;;;0.60;0.60;;;21.50;45.80;;;;;;11206540;26;20011;-44
2024/04/17 02:57:52;;;;;;;1.13;0.50;;;21.40;46.40;;;;;;11206450;26;20008;-42
2024/04/17 03:02:55;;;;;;;0.68;0.60;;;21.30;45.90;;;;;;11206270;26;20004;-42
2024/04/17 03:07:59;;;;;;;2.92;0.80;;;21.20;46.40;;;;;;11206511;26;20407;-42
2024/04/17 03:13:05;;;;;;;3.95;0.60;;;21.70;46.30;;;;;;11205834;26;20461;-42
2024/04/17 03:18:09;;;;;;;2.15;0.60;;;22.10;45.20;;;;;;11206008;26;20018;-42
2024/04/17 03:23:13;;;;;;;1.50;0.70;;;22.30;44.70;;;;;;11208791;26;20003;-42
2024/04/17 03:28:18;;;;;;;9.45;1.40;;;22.40;44.70;;;;;;11213137;26;20451;-43
2024/04/17 03:33:23;;;;;;;11.52;2.30;;;22.30;46.30;;;;;;11212624;26;19999;-43
2024/04/17 03:38:27;;;;;;;10.50;2.92;;;22.40;47.00;;;;;;11213696;26;20334;-42
2024/04/17 03:43:33;;;;;;;15.95;3.70;;;22.40;47.40;;;;;;11213093;26;20014;-43
2024/04/17 03:48:36;;;;;;;11.98;3.15;;;22.30;47.90;;;;;;11211429;26;20029;-42
2024/04/17 03:53:39;;;;;;;11.45;3.25;;;22.40;47.50;;;;;;11212441;26;20012;-43
2024/04/17 03:58:45;;;;;;;12.93;3.63;;;22.40;47.00;;;;;;11211967;26;20407;-43
2024/04/17 04:03:48;;;;;;;8.60;2.60;;;22.60;46.60;;;;;;11212618;26;20014;-45
2024/04/17 04:08:51;;;;;;;10.75;2.70;;;22.60;46.40;;;;;;11211966;26;20356;-41
2024/04/17 04:13:57;;;;;;;7.63;2.22;;;22.70;46.10;;;;;;11211798;26;20014;-42
2024/04/17 04:19:00;;;;;;;8.13;2.35;;;22.70;45.70;;;;;;11211530;26;20011;-42
2024/04/17 04:24:04;;;;;;;7.30;2.40;;;22.90;45.30;;;;;;11209641;26;20010;-42
2024/04/17 04:29:10;;;;;;;5.90;2.20;;;;;;;;;;11211354;26;19999;-42
2024/04/17 04:34:13;;;;;;;5.28;1.90;;;22.60;45.30;;;;;;11209261;26;20013;-42
2024/04/17 04:39:16;;;;;;;6.25;2.00;;;22.70;46.00;;;;;;11211073;26;20427;-42
2024/04/17 04:44:22;;;;;;;4.95;2.03;;;22.60;46.00;;;;;;11210890;26;20003;-42
2024/04/17 04:49:26;;;;;;;4.82;2.03;;;22.60;45.90;;;;;;11190150;26;20012;-42
2024/04/17 04:54:30;;;;;;;4.00;1.67;;;22.80;45.50;;;;;;11157574;26;20014;-42
2024/04/17 04:59:35;;;;;;;3.25;1.60;;;22.70;45.40;;;;;;11210496;26;19999;-42
2024/04/17 05:04:39;;;;;;;3.80;1.60;;;22.70;45.60;;;;;;11209969;26;20015;-42
2024/04/17 05:09:42;;;;;;;3.20;1.60;;;23.20;44.70;;;;;;11210230;26;20080;-42
2024/04/17 05:14:48;;;;;;;2.58;1.33;;;23.00;44.90;;;;;;11210055;26;20018;-43
2024/04/17 05:19:51;;;;;;;3.63;1.33;;;22.90;45.60;;;;;;11209880;26;20468;-43
2024/04/17 05:24:54;;;;;;;3.90;1.38;;;22.90;45.30;;;;;;11210421;26;20011;-42
2024/04/17 05:30:00;;;;;;;2.80;1.25;;;23.10;45.00;;;;;;11210223;26;20011;-45
2024/04/17 05:35:03;;;;;;;4.70;1.30;;;22.80;45.80;;;;;;11209338;26;20017;-42
2024/04/17 05:40:08;;;;;;;4.30;1.60;;;22.70;46.20;;;;;;11209501;26;20015;-46
2024/04/17 05:45:14;;;;;;;3.70;1.17;;;22.50;46.70;;;;;;11208593;26;20010;-41
2024/04/17 05:50:17;;;;;;;12.23;1.30;;;22.70;46.80;;;;;;11208801;26;20415;-41
2024/04/17 05:55:20;;;;;;;20.23;2.60;;;22.70;48.20;;;;;;11209297;26;20000;-43
2024/04/17 06:00:26;;;;;;;20.20;4.18;;;22.50;48.60;;;;;;11208548;26;20009;-42
2024/04/17 06:05:30;;;;;;;23.30;4.45;;;22.50;49.20;;;;;;11208460;26;20457;-42
2024/04/17 06:10:33;;;;;;;26.23;4.60;;;22.40;50.10;;;;;;11208365;26;20457;-42
2024/04/17 06:15:39;;;;;;;24.48;4.20;;;22.60;49.20;;;;;;11208094;26;20007;-42
2024/04/17 06:20:43;;;;;;;12.63;3.28;;;22.70;47.60;;;;;;11208046;26;20000;-42
2024/04/17 06:25:48;;;;;;;13.13;3.10;;;22.40;47.70;;;;;;11208076;26;20407;-42
2024/04/17 06:30:54;;;;;;;14.55;3.30;;;22.60;47.60;;;;;;11205698;26;19999;-45
2024/04/17 06:35:58;;;;;;;14.52;3.05;;;22.50;47.80;;;;;;11204682;26;20488;-42
2024/04/17 06:41:02;;;;;;;9.32;2.65;;;22.20;48.40;;;;;;11204362;26;20407;-43
2024/04/17 06:46:08;;;;;;;7.95;2.85;;;22.10;48.40;;;;;;11205290;26;20003;-44
2024/04/17 06:51:11;;;;;;;9.68;2.20;;;22.10;48.10;;;;;;11191430;26;20012;-42
2024/04/17 06:56:14;;;;;;;5.82;2.28;;;22.10;48.00;;;;;;11134445;26;20008;-42
2024/04/17 07:01:20;;;;;;;6.95;2.30;;;22.10;47.90;;;;;;11140688;26;20039;-42
2024/04/17 07:06:23;;;;;;;7.55;2.13;;;22.10;47.70;;;;;;11140888;26;20000;-41
2024/04/17 07:11:27;;;;;;;5.78;1.80;;;22.20;47.60;;;;;;11140498;26;20019;-43
2024/04/17 07:16:33;;;;;;;5.45;1.80;;;22.00;47.70;;;;;;11140327;26;20015;-42
2024/04/17 07:21:36;;;;;;;5.38;1.85;;;22.00;47.70;;;;;;11140737;26;20053;-42
2024/04/17 07:26:39;;;;;;;3.38;1.75;;;22.00;47.50;;;;;;11139674;26;20015;-42
2024/04/17 07:31:45;;;;;;;5.07;1.55;;;22.00;47.50;;;;;;11140219;26;20404;-43
2024/04/17 07:36:48;;;;;;;4.68;1.67;;;21.90;47.80;;;;;;11139691;26;20015;-42
2024/04/17 07:41:52;;;;;;;3.47;1.45;;;21.80;47.80;;;;;;11139831;26;20016;-42
2024/04/17 07:46:58;;;;;;;3.67;1.42;;;21.90;47.70;;;;;;11139383;26;20350;-41
2024/04/17 07:52:01;;;;;;;3.05;1.38;;;21.90;47.50;;;;;;11139382;26;20016;-42
2024/04/17 07:57:04;;;;;;;3.17;1.20;;;21.90;47.40;;;;;;11139049;26;20491;-41
2024/04/17 08:02:10;;;;;;;2.85;1.45;;;22.00;47.10;;;;;;11138801;26;20004;-45
2024/04/17 08:07:13;;;;;;;4.32;1.45;;;21.90;47.20;;;;;;11138990;26;20008;-44
2024/04/17 08:12:16;;;;;;;2.63;1.40;;;21.90;47.10;;;;;;11138741;26;20000;-42
2024/04/17 08:17:22;;;;;;;2.20;1.27;;;21.90;46.90;;;;;;11138658;26;20001;-44
2024/04/17 08:22:26;;;;;;;2.53;1.10;;;21.80;47.00;;;;;;11138585;26;20480;-42
2024/04/17 08:27:29;;;;;;;1.50;0.95;;;21.90;46.70;;;;;;11138236;26;19996;-42
2024/04/17 08:32:35;;;;;;;2.15;1.05;;;21.90;46.60;;;;;;11138431;26;20019;-41
2024/04/17 08:37:38;;;;;;;4.03;1.23;;;21.90;46.60;;;;;;11137970;26;20030;-42
2024/04/17 08:42:43;;;;;;;2.15;1.15;;;21.80;46.60;;;;;;11137677;26;20361;-42
2024/04/17 08:47:49;;;;;;;2.60;1.33;;;21.70;47.30;;;;;;11138317;26;20012;-42
2024/04/17 08:52:52;;;;;;;3.22;1.00;;;21.70;47.10;;;;;;11137804;26;20011;-42
2024/04/17 08:57:56;;;;;;;1.95;1.20;;;21.60;47.30;;;;;;11137446;26;20009;-42
2024/04/17 09:03:02;;;;;;;2.15;1.20;;;21.60;47.30;;;;;;11137259;26;20031;-42
2024/04/17 09:08:05;;;;;;;3.40;1.40;;;21.60;47.70;;;;;;11137729;26;20412;-42
2024/04/17 09:13:08;;;;;;;2.00;1.20;;;21.50;47.70;;;;;;11136895;26;20008;-42
2024/04/17 09:18:14;;;;;;;2.65;1.27;;;21.70;47.60;;;;;;11137017;26;20081;-42
2024/04/17 09:23:20;;;;;;;1.80;1.10;;;21.50;47.90;;;;;;11136117;26;20343;-41
2024/04/17 09:28:23;;;;;;;1.38;1.02;;;21.50;47.80;;;;;;11136689;26;20032;-41
2024/04/17 09:33:29;;;;;;;1.40;1.00;;;21.50;47.70;;;;;;11135976;26;20079;-42
2024/04/17 09:38:33;;;;;;;1.70;1.00;;;21.60;47.30;;;;;;11136345;26;20472;-41
2024/04/17 09:43:38;;;;;;;1.30;1.02;;;21.60;47.50;;;;;;11136574;26;20008;-45
2024/04/17 09:48:49;;;;;;;1.60;0.80;;;21.70;47.30;;;;;;11135966;26;20013;-42
2024/04/17 09:53:55;;;;;;;2.38;1.13;;;21.80;47.20;;;;;;11135913;26;20070;-42
2024/04/17 09:58:59;;;;;;;2.10;1.10;;;21.90;47.10;;;;;;11135484;26;20023;-44
2024/04/17 10:04:05;;;;;;;1.40;1.10;;;22.10;46.60;;;;;;11135288;26;20012;-41
2024/04/17 10:09:08;;;;;;;1.58;1.10;;;21.90;46.90;;;;;;11135287;26;20005;-46
2024/04/17 10:14:13;;;;;;;1.48;1.00;;;22.00;46.80;;;;;;11135068;26;20001;-42
2024/04/17 10:19:18;;;;;;;1.73;1.00;;;22.20;46.40;;;;;;11135169;26;20450;-43
2024/04/17 10:24:22;;;;;;;1.17;0.93;;;22.30;46.10;;;;;;11135003;26;20015;-41
2024/04/17 10:29:25;;;;;;;1.08;0.77;;;22.40;45.90;;;;;;11134810;26;20450;-42
2024/04/17 10:34:31;;;;;;;1.73;1.00;;;22.50;45.80;;;;;;11138992;26;20011;-42
2024/04/17 10:39:35;;;;;;;2.00;0.93;;;22.60;45.50;;;;;;11141226;26;19996;-42
2024/04/17 10:44:38;;;;;;;1.40;0.90;;;22.70;45.20;;;;;;11141828;26;20006;-42
2024/04/17 10:49:44;;;;;;;0.93;0.68;;;22.70;45.10;;;;;;11139159;26;20004;-47
2024/04/17 10:54:47;;;;;;;1.48;0.90;;;22.70;44.70;;;;;;11141349;26;20460;-44
2024/04/17 10:59:52;;;;;;;1.05;0.70;;;22.80;44.40;;;;;;11140639;26;20010;-45
2024/04/17 11:04:58;;;;;;;1.35;0.65;;;22.90;44.20;;;;;;11140589;26;20000;-42
2024/04/17 11:10:01;;;;;;;0.77;0.70;;;23.30;43.10;;;;;;11140635;26;20000;-42
2024/04/17 11:15:05;;;;;;;1.10;0.80;;;23.40;43.00;;;;;;11140290;26;20015;-43
2024/04/17 11:20:12;;;;;;;1.58;0.90;;;23.40;43.00;;;;;;11140655;26;20132;-43
2024/04/17 11:25:15;;;;;;;1.58;1.00;;;23.50;42.70;;;;;;11140532;26;19996;-43
2024/04/17 11:30:19;;;;;;;1.65;0.82;;;23.50;42.80;;;;;;11140087;26;20000;-42
2024/04/17 11:35:25;;;;;;;1.33;0.70;;;23.50;42.70;;;;;;11139775;26;20004;-43
2024/04/17 11:40:28;;;;;;;0.98;0.75;;;23.20;43.10;;;;;;11139857;26;20015;-43
2024/04/17 11:45:32;;;;;;;1.08;0.60;;;23.00;43.60;;;;;;11138571;26;20015;-42
2024/04/17 11:50:37;;;;;;;1.88;0.70;;;22.80;43.90;;;;;;11139431;26;19999;-44
2024/04/17 11:55:41;;;;;;;2.53;0.90;;;22.80;43.90;;;;;;11139756;26;20453;-42
2024/04/17 12:00:44;;;;;;;1.42;0.80;;;22.80;43.90;;;;;;11139134;26;20015;-42
2024/04/17 12:05:50;;;;;;;0.70;0.60;;;22.50;44.20;;;;;;11139105;26;20019;-42
2024/04/17 12:10:53;;;;;;;1.48;0.80;;;22.50;44.20;;;;;;11138900;26;19996;-42
2024/04/17 12:15:56;;;;;;;1.88;0.82;;;22.20;44.50;;;;;;11138333;26;20000;-43
2024/04/17 12:21:02;;;;;;;0.70;0.60;;;22.00;44.80;;;;;;11138337;26;20012;-42
2024/04/17 12:31:25;;;;;;;1.40;0.68;;;22.00;44.60;;;;;;11143610;26;20008;-42
2024/04/17 12:36:31;;;;;;;1.55;0.60;;;22.00;44.40;;;;;;11137421;26;20016;-41
2024/04/17 12:41:34;;;;;;;1.00;0.60;;;22.30;43.90;;;;;;11138077;26;20015;-41
2024/04/17 12:46:37;;;;;;;0.88;0.60;;;22.40;43.70;;;;;;11137697;26;20000;-42
2024/04/17 12:51:43;;;;;;;1.23;0.55;;;22.50;43.40;;;;;;11137590;26;20008;-42
2024/04/17 12:56:47;;;;;;;1.30;0.70;;;22.90;42.70;;;;;;11136698;26;20073;-41
2024/04/17 13:01:50;;;;;;;0.85;0.60;;;23.20;42.30;;;;;;11137465;26;20012;-42
2024/04/17 13:06:57;;;;;;;0.93;0.52;;;23.20;42.40;;;;;;11137288;26;20004;-42
2024/04/17 13:12:00;;;;;;;0.70;0.60;;;23.30;42.20;;;;;;11137036;26;19996;-42
2024/04/17 13:17:03;;;;;;;1.98;0.60;;;23.40;42.20;;;;;;11136766;26;20008;-42
2024/04/17 13:22:09;;;;;;;1.00;0.60;;;23.30;42.40;;;;;;11136916;26;20408;-41
2024/04/17 13:27:12;;;;;;;0.90;0.70;;;23.40;42.20;;;;;;11136475;26;20000;-42
2024/04/17 13:32:16;;;;;;;0.82;0.68;;;23.40;42.20;;;;;;11132589;26;20012;-45
2024/04/17 13:37:22;;;;;;;1.00;0.60;;;23.50;42.30;;;;;;11126553;26;20032;-42
2024/04/17 13:42:25;;;;;;;0.80;0.50;;;23.50;42.40;;;;;;11136102;26;20015;-41
2024/04/17 13:47:28;;;;;;;0.95;0.60;;;23.60;42.10;;;;;;11135760;26;20023;-42
2024/04/17 13:52:34;;;;;;;0.80;0.60;;;23.70;42.00;;;;;;11135725;26;20454;-42
2024/04/17 13:57:37;;;;;;;0.57;0.50;;;23.40;42.40;;;;;;11135615;26;20005;-42
2024/04/17 14:02:41;;;;;;;2.38;0.60;;;23.50;42.40;;;;;;11135359;26;20015;-43
2024/04/17 14:07:46;;;;;;;1.40;0.63;;;23.80;41.80;;;;;;11135282;26;20078;-42
2024/04/17 14:12:50;;;;;;;0.55;0.50;;;24.00;41.40;;;;;;11135009;26;20012;-42
2024/04/17 14:17:54;;;;;;;0.80;0.50;;;24.00;41.20;;;;;;11135022;26;20000;-42
2024/04/17 14:22:59;;;;;;;1.35;0.57;;;24.00;41.80;;;;;;11134909;26;20373;-42
2024/04/17 14:28:06;;;;;;;0.75;0.55;;;24.00;41.10;;;;;;11106725;26;20004;-42
2024/04/17 14:33:09;;;;;;;1.00;0.50;;;23.90;42.00;;;;;;11133538;26;20008;-42
2024/04/17 14:38:15;;;;;;;3.92;0.80;;;23.90;42.00;;;;;;11134219;26;20012;-42
2024/04/17 14:43:18;;;;;;;2.63;0.60;;;24.30;40.40;;;;;;11134251;26;20345;-42
2024/04/17 14:48:21;;;;;;;1.38;0.50;;;24.30;40.60;;;;;;11169205;26;20000;-43
2024/04/17 14:53:27;;;;;;;2.55;0.80;;;24.30;40.90;;;;;;11207024;26;20352;-42
2024/04/17 14:58:31;;;;;;;5.93;1.08;;;23.80;34.60;;;;;;11206779;26;19996;-42
2024/04/17 15:03:35;;;;;;;5.90;0.80;;;23.60;37.50;;;;;;11206575;26;20478;-42
2024/04/17 15:08:41;;;;;;;4.00;0.77;;;24.00;38.10;;;;;;11206955;26;20014;-42
2024/04/17 15:13:47;;;;;;;2.60;1.00;;;24.20;38.80;;;;;;11206169;26;20457;-42
2024/04/17 15:18:50;;;;;;;2.95;1.05;;;24.40;39.20;;;;;;11209303;26;20040;-42
2024/04/17 15:23:57;;;;;;;15.38;1.85;;;24.30;40.10;;;;;;11213562;26;20475;-46
2024/04/17 15:29:00;;;;;;;13.00;1.27;;;24.50;41.30;;;;;;11213482;26;20003;-43
2024/04/17 15:34:03;;;;;;;11.20;1.05;;;24.90;40.30;;;;;;11213103;26;20014;-44
2024/04/17 15:39:09;;;;;;;3.63;0.85;;;24.60;40.70;;;;;;11213257;26;20008;-42
2024/04/17 15:44:12;;;;;;;5.80;1.05;;;24.50;41.10;;;;;;11212752;26;20016;-42
2024/04/17 15:49:16;;;;;;;7.07;1.00;;;24.50;41.40;;;;;;11212136;26;20014;-42
2024/04/17 15:54:23;;;;;;;27.88;1.70;;;24.50;41.30;;;;;;11212820;26;20015;-41
2024/04/17 15:59:28;;;;;;;7.57;1.20;;;24.20;42.60;;;;;;11212418;26;20015;-41
2024/04/17 16:04:32;;;;;;;11.98;1.10;;;24.20;42.60;;;;;;11212136;26;20014;-42
2024/04/17 16:09:38;;;;;;;9.52;1.55;;;24.20;42.80;;;;;;11211922;26;19999;-41
2024/04/17 16:14:41;;;;;;;15.05;1.27;;;24.30;43.10;;;;;;11212517;26;20013;-41
2024/04/17 16:19:44;;;;;;;12.88;1.00;;;24.30;43.90;;;;;;11211857;26;20014;-43
2024/04/17 16:24:50;;;;;;;6.90;1.02;;;24.00;44.50;;;;;;11211610;26;20007;-43
2024/04/17 16:29:53;;;;;;;9.02;1.30;;;24.30;44.10;;;;;;11211770;26;20014;-43
2024/04/17 16:34:56;;;;;;;9.60;1.45;;;23.90;45.20;;;;;;11210989;26;20014;-42
2024/04/17 16:40:03;;;;;;;13.15;9.98;;;23.80;46.00;;;;;;11196720;26;20016;-42
2024/04/17 16:45:07;;;;;;;22.58;17.08;;;23.80;46.50;;;;;;11211610;26;20004;-42
2024/04/17 16:50:11;;;;;;;22.35;19.00;;;23.80;46.90;;;;;;11210652;26;20036;-41
2024/04/17 16:55:17;;;;;;;23.98;19.58;;;23.90;47.20;;;;;;11211101;26;20452;-41
2024/04/17 17:00:20;;;;;;;27.02;19.35;;;24.00;48.00;;;;;;11210707;26;20010;-42
2024/04/17 17:05:23;;;;;;;24.40;19.00;;;24.00;48.50;;;;;;11210459;26;20015;-42
2024/04/17 17:10:30;;;;;;;19.60;16.92;;;24.00;49.00;;;;;;11210282;26;19995;-42
2024/04/17 17:15:33;;;;;;;18.83;16.08;;;24.00;48.20;;;;;;11210999;26;20540;-42
2024/04/17 17:20:39;;;;;;;18.42;16.02;;;24.10;48.00;;;;;;11210277;26;19996;-46
2024/04/17 17:25:45;;;;;;;15.35;13.48;;;24.00;48.50;;;;;;11210002;26;20000;-42
2024/04/17 17:30:56;;;;;;;16.63;12.50;;;24.00;48.50;;;;;;11210055;26;20053;-42
2024/04/17 17:35:59;;;;;;;17.60;12.00;;;24.00;48.90;;;;;;11209593;26;20011;-46
2024/04/17 17:41:11;;;;;;;16.02;11.25;;;24.00;49.10;;;;;;11208397;26;20014;-44
2024/04/17 17:46:15;;;;;;;13.23;10.82;;;24.10;49.60;;;;;;11263849;26;20013;-42
2024/04/17 17:51:18;;;;;;;12.38;11.07;;;24.00;49.90;;;;;;11261803;26;20449;-42
2024/04/17 17:56:24;;;;;;;19.45;10.45;;;24.10;50.10;;;;;;11213819;26;20035;-44
2024/04/17 18:01:29;;;;;;;25.13;10.00;;;24.10;51.00;;;;;;11209024;26;20014;-43
2024/04/17 18:06:33;;;;;;;22.98;9.00;;;24.20;52.40;;;;;;11206458;26;20008;-42
2024/04/17 18:11:39;;;;;;;20.08;9.18;;;24.20;52.50;;;;;;11207805;26;20010;-43
2024/04/17 18:16:42;;;;;;;17.88;8.57;;;24.30;52.20;;;;;;11207606;26;20014;-44
2024/04/17 18:21:46;;;;;;;18.30;9.25;;;24.40;52.30;;;;;;11207129;26;20000;-43
2024/04/17 18:26:51;;;;;;;17.35;9.07;;;24.70;51.30;;;;;;11204997;26;19999;-43
2024/04/17 18:31:55;;;;;;;12.82;7.32;;;24.90;50.40;;;;;;11207001;26;20018;-43
2024/04/17 18:36:58;;;;;;;9.25;6.35;;;25.30;48.50;;;;;;11206819;26;20014;-43
2024/04/17 18:42:04;;;;;;;9.35;5.43;;;25.40;47.20;;;;;;11207009;26;20015;-45
2024/04/17 18:47:07;;;;;;;13.05;5.45;;;25.30;46.40;;;;;;11207589;26;20464;-42
2024/04/17 18:52:10;;;;;;;9.23;5.38;;;25.40;45.80;;;;;;11205785;26;20367;-43
2024/04/17 18:57:17;;;;;;;15.70;5.45;;;25.10;46.70;;;;;;11214156;26;20014;-42
2024/04/17 19:02:20;;;;;;;16.23;5.03;;;25.20;47.20;;;;;;11213391;26;20008;-43
2024/04/17 19:07:23;;;;;;;9.90;4.53;;;25.00;47.90;;;;;;11212160;26;20468;-47
2024/04/17 19:12:29;;;;;;;9.90;4.30;;;25.00;47.80;;;;;;11210846;26;20034;-43
2024/04/17 19:17:32;;;;;;;11.48;3.85;;;25.10;47.00;;;;;;11213059;26;20007;-42
2024/04/17 19:22:36;;;;;;;10.20;3.95;;;24.90;47.30;;;;;;11213356;26;20346;-43
2024/04/17 19:27:42;;;;;;;8.90;3.60;;;25.10;47.10;;;;;;11204950;26;20081;-47
2024/04/17 19:32:45;;;;;;;9.05;3.67;;;25.10;46.70;;;;;;11205741;26;20014;-44
2024/04/17 19:37:49;;;;;;;7.43;3.22;;;24.90;46.80;;;;;;11212193;26;20003;-46
2024/04/17 19:42:55;;;;;;;6.25;3.33;;;24.70;47.10;;;;;;11212319;26;20004;-45
2024/04/17 19:48:01;;;;;;;7.45;3.28;;;24.60;47.00;;;;;;11212673;26;20415;-43
2024/04/17 19:53:04;;;;;;;6.03;2.92;;;24.50;47.10;;;;;;11212367;26;20073;-43
2024/04/17 19:58:10;;;;;;;4.80;2.80;;;24.30;47.20;;;;;;11212386;26;20007;-43
2024/04/17 20:03:13;;;;;;;4.65;2.72;;;24.10;47.50;;;;;;11210757;26;20012;-45
2024/04/17 20:08:16;;;;;;;7.00;3.08;;;23.90;47.70;;;;;;11210426;26;20449;-44
2024/04/17 20:13:22;;;;;;;3.92;2.80;;;23.90;47.70;;;;;;11213712;26;19995;-43
2024/04/17 20:18:26;;;;;;;4.18;2.70;;;23.70;47.80;;;;;;11211187;26;20015;-43
2024/04/17 20:23:29;;;;;;;6.00;2.75;;;23.70;47.70;;;;;;11212280;26;20003;-43
2024/04/17 20:28:36;;;;;;;3.97;2.53;;;23.50;47.80;;;;;;11210762;26;20000;-45
2024/04/17 20:33:42;;;;;;;3.80;2.60;;;23.60;47.40;;;;;;11211989;26;20011;-43
2024/04/17 20:38:46;;;;;;;6.43;2.90;;;23.80;46.90;;;;;;11210633;26;20459;-43
2024/04/17 20:43:52;;;;;;;5.68;2.50;;;23.70;46.80;;;;;;11212028;26;20462;-44
2024/04/17 20:48:55;;;;;;;3.33;2.20;;;23.60;46.80;;;;;;11210342;26;20007;-43
2024/04/17 20:53:58;;;;;;;3.28;2.60;;;23.70;46.40;;;;;;11210250;26;20411;-47
2024/04/17 20:59:04;;;;;;;3.60;2.33;;;23.70;46.40;;;;;;11209303;26;20000;-44
2024/04/17 21:04:07;;;;;;;5.00;2.50;;;23.60;46.50;;;;;;11210680;26;20472;-50
2024/04/17 21:09:11;;;;;;;3.55;2.38;;;23.60;46.80;;;;;;11210710;26;20014;-45
2024/04/17 21:14:17;;;;;;;3.10;2.22;;;23.60;46.70;;;;;;11209028;26;19999;-48
2024/04/17 21:19:20;;;;;;;2.78;2.03;;;23.30;47.20;;;;;;11208777;26;20003;-45
2024/04/17 21:24:24;;;;;;;4.88;2.20;;;23.30;47.40;;;;;;11208472;26;19995;-45
2024/04/17 21:29:29;;;;;;;2.72;2.15;;;23.50;46.80;;;;;;11210347;26;20007;-46
2024/04/17 21:34:33;;;;;;;3.70;2.45;;;23.50;46.70;;;;;;11208807;26;19995;-45
2024/04/17 21:39:36;;;;;;;3.40;2.15;;;23.40;46.90;;;;;;11209772;26;19999;-45
2024/04/17 21:44:42;;;;;;;2.00;1.90;;;23.40;46.90;;;;;;11208391;26;20000;-45
2024/04/17 21:49:45;;;;;;;4.15;2.10;;;23.40;46.80;;;;;;11209180;26;20453;-45
2024/04/17 21:54:48;;;;;;;3.10;2.25;;;23.40;46.90;;;;;;11208311;26;20014;-45
2024/04/17 21:59:55;;;;;;;3.47;1.95;;;23.40;46.60;;;;;;11209032;26;20042;-46
2024/04/17 22:04:58;;;;;;;3.22;1.90;;;23.40;46.50;;;;;;11207167;26;20406;-45
2024/04/17 22:10:01;;;;;;;2.17;1.98;;;23.60;46.30;;;;;;11207250;26;20011;-45
2024/04/17 22:15:08;;;;;;;2.42;1.83;;;23.50;46.40;;;;;;11207678;26;20468;-45
2024/04/17 22:20:11;;;;;;;1.88;1.70;;;23.60;46.20;;;;;;11208675;26;19999;-44
2024/04/17 22:25:14;;;;;;;2.47;1.80;;;23.60;46.00;;;;;;11207424;26;19995;-45
2024/04/17 22:30:20;;;;;;;2.85;1.85;;;23.60;45.90;;;;;;11221860;26;20441;-45
2024/04/17 22:35:24;;;;;;;2.15;1.67;;;23.50;46.10;;;;;;11222774;26;20017;-45
2024/04/17 22:40:27;;;;;;;2.38;1.92;;;23.70;45.60;;;;;;11223281;26;20445;-48
2024/04/17 22:45:33;;;;;;;2.28;1.80;;;23.80;46.10;;;;;;11222904;26;20007;-47
2024/04/17 22:50:36;;;;;;;1.73;1.50;;;23.70;52.40;;;;;;11223220;26;20031;-45
2024/04/17 22:55:39;;;;;;;2.15;1.48;;;23.70;45.20;;;;;;11222169;26;20453;-45
2024/04/17 23:00:46;;;;;;;2.22;1.40;;;23.80;45.10;;;;;;11222788;26;20037;-46
2024/04/17 23:05:49;;;;;;;1.67;1.40;;;23.70;45.10;;;;;;11148947;26;20044;-45
2024/04/17 23:10:59;;;;;;;2.13;1.38;;;23.60;45.40;;;;;;11148904;26;19996;-48
2024/04/17 23:16:05;;;;;;;1.88;1.30;;;23.50;45.40;;;;;;11216580;26;20000;-47
2024/04/17 23:21:08;;;;;;;2.20;1.58;;;23.40;45.60;;;;;;11221730;26;19999;-45
2024/04/17 23:26:20;;;;;;;2.55;1.60;;;23.40;45.70;;;;;;11219829;26;20342;-45
2024/04/17 23:31:26;;;;;;;1.98;1.50;;;23.30;45.80;;;;;;11221709;26;20074;-46
2024/04/17 23:36:29;;;;;;;1.58;1.48;;;23.30;45.60;;;;;;11221486;26;20003;-45
2024/04/17 23:41:32;;;;;;;2.08;1.50;;;23.20;45.70;;;;;;11213665;26;20015;-47
2024/04/17 23:46:38;;;;;;;2.40;1.40;;;23.10;46.20;;;;;;11212870;26;20015;-47
2024/04/17 23:51:42;;;;;;;1.80;1.30;;;23.10;46.10;;;;;;11213047;26;20015;-46
2024/04/17 23:56:45;;;;;;;1.50;1.40;;;23.10;46.10;;;;;;11213135;26;20414;-45
